首页
METAR-TAF:

METAR-TAF

机场 :

Angelina County Airport

拉夫金, 得克萨斯州, 美国

纬度: 31-14-02N, 经度: 094-45-00W, 海拔: 90米

当前天气观测

该预报发布于1小时和18分钟前的12:53 UTC
风速6节,风向东转东南
温度 22°C
湿度 100%
气压 1018 hPa
能見度: 16.1公里
少量云层高于600英尺
散云层高于10000英尺
多云层高于12000英尺
小雨

METAR: KLFK 181253Z AUTO 12006KT 10SM -RA FEW006 SCT100 BKN120 22/22 A3005 RMK AO2 LTG DSNT SE SLP171 P0006 T02220222

时间: 09:11 (14:11 UTC)

预报

该预报发布于2小时和10分钟前的12:01 UTC
预报有效从18日的 12点(UTC)到 19日的 12点(UTC)
风速5节,风向
能見度: 9.7公里
多云层高于3500英尺, 积雨云.
阴天层高于10000英尺
阵雨, 附近有雷暴
从 18日的 1500点(UTC)
风速5节,风向多变
能見度: 10公里
阴天层高于1500英尺, 积雨云.
附近有雷暴
从 18日的 1800点(UTC)
风速6节,风向多变
能見度: 4.8公里
多云层高于2500英尺, 积雨云.
阴天层高于3500英尺
雷暴, 雨
从 19日的 0000点(UTC)
风速3节,风向多变
能見度: 10公里
多云层高于3500英尺, 积雨云.
阴天层高于10000英尺
附近有雷暴,

TAF: KLFK 181201Z 1812/1912 17005KT 6SM SHRA VCTS BKN035CB OVC100 FM181500 VRB05KT P6SM VCTS OVC015CB FM181800 VRB06KT 3SM TSRA BKN025CB OVC035 FM190000 VRB03KT P6SM VCTS BKN035CB OVC100

超过4000个机场的气象观测和天气预报(METAR&TAF报告)。

可查询的气象台以黄色和红色小点在地图上表示。

将鼠标移到小点上方,可查看气象台名称。

然后点击查看天气观测和预报。

如需切换地图:点击带黑十字的绿色按钮放大地图;点击带横线的绿色按钮缩小地图;或者点击绿色箭头查看邻近地区的地图。


METAR-TAF: